Dracut, MA (01826)

6:44 PM EST on February 27, 2015 (GMT -0500)
Navy Yard | Change Station
CLOSE
Current Station
Personal Weather Station
Location: Dracut, MA
Elevation: 89 ft
Nearby Weather Stations

Elev 89 ft 42.67 °N, 71.32 °W | Updated 1 second ago

Clear
Clear
19.6 °F
Feels Like 20 °F
N
0.0
Wind Variable Wind from West
Gusts 2.2 mph

Today
High -- | Low -- °F
--% Chance of Precip.
Yesterday
High -- | Low -- °F
Precip. -- in
6:24 AM 5:32 PM
Waxing Gibbous, 72% visible
Pressure 30.42 in
Visibility 10.0 miles
Clouds Clear
Windchill 20 °F
Dew Point -5 °F
Humidity 32%
Rainfall 0.00 in
Snow Depth Not available.
UV 0 out of 12
Pollen .40 out of 12
Air Quality Not available.
Flu Activity Not available.
METAR KLWM 272254Z 35004KT 10SM CLR M09/M20 A3040 RMK AO2 SLP299 T10891200

More Conditions Fewer Conditions

Pressure 30.42 in
Visibility 10.0 miles
Clouds Clear
Windchill 20 °F
Dew Point -5 °F
Humidity 32%
Rainfall 0.00 in
Snow Depth Not available.
UV 0 out of 12
Pollen .40 out of 12
Air Quality Not available.
Flu Activity Not available.
METAR KLWM 272254Z 35004KT 10SM CLR M09/M20 A3040 RMK AO2 SLP299 T10891200

More Conditions Fewer Conditions

10-Day Weather Forecast

Almanac

Astronomy

Feb. 27, 2015 Rise Set
Actual Time
Civil Twilight
Nautical Twilight
Astronomical Twilight
Moon
Length of Visible Light
Length of Day
Tomorrow will be .
, % of the Moon is Illuminated

Today's Extremes

State Highs State Lows

Community

WunderPhotos

Upload Photos

1,800,881 photos uploaded!

WunderBlogs® & News

Nearby

Air Quality

  Air Quality AQ Index Pollutant
Not available.

Snow Depth

Station Depth Elevation

Earthquake Activity

City Distance Mag. Time & Date
Minimum magnitude displayed is 2.5.

Coastal Water Temperatures

Place Temperature

Nearby Weather Stations